Time;durP1;ratioP1;P1;durP2;ratioP2;P2;SDS_P1;SDS_P2;PMS_P1;PMS_P2;Temp;Humidity;BMP_temperature;BMP_pressure;BME280_temperature;BME280_humidity;BME280_pressure;Samples;Min_cycle;Max_cycle;Signal;HPM_P1;HPM_P2
2021/03/24 00:00:24;;;;;;;62.42;38.42;;;;;;;4.12;100.00;101519.38;5219125;28;20028;-78
2021/03/24 00:02:58;;;;;;;57.92;37.75;;;;;;;4.24;100.00;101509.13;5221809;28;20109;-78
2021/03/24 00:05:33;;;;;;;63.53;39.97;;;;;;;4.42;100.00;101516.06;5219273;28;20032;-78
2021/03/24 00:08:05;;;;;;;66.93;41.92;;;;;;;4.42;100.00;101514.38;5215077;28;20024;-78
2021/03/24 00:10:37;;;;;;;63.97;42.88;;;;;;;4.50;100.00;101517.84;5217119;28;20039;-78
2021/03/24 00:13:08;;;;;;;63.65;43.33;;;;;;;4.53;100.00;101511.81;5220872;28;20028;-77
2021/03/24 00:15:38;;;;;;;70.35;44.45;;;;;;;4.55;100.00;101510.09;5221916;28;20017;-78
2021/03/24 00:18:09;;;;;;;68.70;45.22;;;;;;;4.60;100.00;101508.41;5222958;28;20119;-78
2021/03/24 00:20:42;;;;;;;67.85;44.65;;;;;;;4.57;100.00;101506.66;5222549;28;20028;-78
2021/03/24 00:23:12;;;;;;;64.45;43.25;;;;;;;4.63;100.00;101508.41;5221713;28;20036;-78
2021/03/24 00:25:43;;;;;;;67.13;43.50;;;;;;;4.62;100.00;101514.44;5222104;28;20032;-78
2021/03/24 00:28:14;;;;;;;69.85;44.38;;;;;;;4.60;100.00;101514.44;5223160;28;20029;-78
2021/03/24 00:30:47;;;;;;;65.50;44.30;;;;;;;4.62;100.00;101512.72;5222357;28;20041;-77
2021/03/24 00:33:20;;;;;;;71.82;45.83;;;;;;;4.54;100.00;101521.31;5223051;28;20062;-78
2021/03/24 00:35:52;;;;;;;67.05;44.20;;;;;;;4.70;100.00;101516.22;5223038;28;20055;-78
2021/03/24 00:38:24;;;;;;;67.32;45.38;;;;;;;4.68;100.00;101520.53;5223022;28;20031;-78
2021/03/24 00:40:57;;;;;;;66.68;44.45;;;;;;;4.72;100.00;101518.78;5222753;28;20052;-77
2021/03/24 00:43:28;;;;;;;70.28;46.38;;;;;;;4.72;100.00;101519.66;5222525;28;20398;-78
2021/03/24 00:45:58;;;;;;;69.38;44.95;;;;;;;4.72;100.00;101517.06;5222336;28;20028;-78
2021/03/24 00:48:33;;;;;;;65.00;45.13;;;;;;;4.77;100.00;101527.44;5223056;28;20040;-77
2021/03/24 00:51:06;;;;;;;67.10;45.20;;;;;;;4.85;100.00;101521.44;5218650;28;20113;-78
2021/03/24 00:53:36;;;;;;;72.75;47.40;;;;;;;4.90;100.00;101517.13;5222438;28;20058;-78
2021/03/24 00:56:06;;;;;;;74.97;48.33;;;;;;;4.95;100.00;101511.97;5222421;28;20526;-78
2021/03/24 00:58:38;;;;;;;75.25;48.35;;;;;;;5.01;100.00;101512.81;5204924;28;20028;-78
2021/03/24 01:01:08;;;;;;;81.00;51.65;;;;;;;5.06;100.00;101510.22;5222225;28;20024;-78
2021/03/24 01:03:38;;;;;;;86.28;52.00;;;;;;;5.08;100.00;101513.69;5203931;28;20111;-78
2021/03/24 01:06:09;;;;;;;82.45;50.67;;;;;;;5.14;100.00;101501.59;5222338;28;20096;-78
2021/03/24 01:08:39;;;;;;;79.85;50.22;;;;;;;5.17;100.00;101506.78;5222095;28;20076;-78
2021/03/24 01:11:10;;;;;;;85.20;53.22;;;;;;;5.24;100.00;101505.94;5222512;28;20025;-78
2021/03/24 01:13:40;;;;;;;87.07;52.75;;;;;;;5.33;100.00;101511.13;5221729;28;20120;-78
2021/03/24 01:16:10;;;;;;;92.95;55.28;;;;;;;5.38;100.00;101504.22;5222216;28;20032;-78
2021/03/24 01:18:40;;;;;;;92.72;56.05;;;;;;;5.40;100.00;101502.50;5222312;28;20036;-78
2021/03/24 01:21:11;;;;;;;91.30;54.50;;;;;;;5.49;100.00;101490.41;5222023;28;20029;-78
2021/03/24 01:23:41;;;;;;;94.25;56.60;;;;;;;5.50;100.00;101504.22;5221777;28;20031;-78
2021/03/24 01:26:11;;;;;;;95.95;55.13;;;;;;;5.51;100.00;101493.84;5224144;28;20021;-78
2021/03/24 01:28:42;;;;;;;91.25;54.90;;;;;;;5.54;100.00;101495.59;5226567;28;20126;-78
2021/03/24 01:31:12;;;;;;;88.72;55.08;;;;;;;5.57;100.00;101495.59;5248547;22;21139;-78
2021/03/24 01:33:42;;;;;;;91.10;53.97;;;;;;;5.64;100.00;101495.56;5227052;28;20065;-77
2021/03/24 01:36:12;;;;;;;90.85;53.40;;;;;;;5.66;100.00;101495.56;5226954;28;20049;-78
2021/03/24 01:38:43;;;;;;;92.95;55.42;;;;;;;5.63;100.00;101490.38;5228174;28;20059;-78
2021/03/24 01:41:14;;;;;;;96.50;55.20;;;;;;;5.67;100.00;101490.38;5227264;28;20039;-77
2021/03/24 01:43:45;;;;;;;95.32;55.35;;;;;;;5.63;100.00;101492.97;5227430;28;20033;-78
2021/03/24 01:46:24;;;;;;;89.88;54.15;;;;;;;5.61;100.00;101485.19;5227365;28;20390;-78
2021/03/24 01:48:58;;;;;;;96.65;56.17;;;;;;;5.63;100.00;101490.38;5217858;28;20032;-77
2021/03/24 01:51:36;;;;;;;86.55;53.58;;;;;;;5.65;100.00;101486.06;5227855;28;20028;-77
2021/03/24 01:54:10;;;;;;;97.97;55.35;;;;;;;5.63;100.00;101488.66;5225195;28;20047;-77
2021/03/24 01:56:44;;;;;;;98.13;55.92;;;;;;;5.69;100.00;101486.06;5229513;28;20048;-78
2021/03/24 01:59:15;;;;;;;96.38;54.83;;;;;;;5.68;100.00;101483.44;5230080;28;20033;-78
2021/03/24 02:01:46;;;;;;;95.78;56.25;;;;;;;5.66;100.00;101486.06;5229647;28;20059;-78
2021/03/24 02:04:16;;;;;;;96.60;56.08;;;;;;;5.71;100.00;101486.06;5226385;28;20057;-77
2021/03/24 02:07:01;;;;;;;99.97;55.33;;;;;;;5.71;100.00;101486.06;5229009;28;20055;-78
2021/03/24 02:10:00;;;;;;;93.50;56.53;;;;;;;5.68;100.00;101476.56;5227265;28;20107;-77
2021/03/24 02:12:38;;;;;;;100.60;57.50;;;;;;;5.67;100.00;101480.00;5225488;28;20017;-77
2021/03/24 02:15:15;;;;;;;91.80;53.58;;;;;;;5.73;100.00;101476.56;5225588;28;20039;-76
2021/03/24 02:17:47;;;;;;;87.90;55.35;;;;;;;5.79;100.00;101486.94;5226703;28;20550;-76
2021/03/24 02:20:39;;;;;;;103.55;58.28;;;;;;;5.79;100.00;101477.44;5225785;28;20090;-77
2021/03/24 02:23:24;;;;;;;89.85;56.20;;;;;;;5.84;100.00;101478.28;5222237;28;20025;-77
2021/03/24 02:26:06;;;;;;;95.43;56.60;;;;;;;5.85;100.00;101484.31;5225306;28;20099;-77
2021/03/24 02:28:38;;;;;;;90.43;56.20;;;;;;;5.86;100.00;101483.44;5225238;28;20016;-76
2021/03/24 02:31:09;;;;;;;96.10;58.90;;;;;;;5.90;100.00;101482.59;5207285;28;20044;-75
2021/03/24 02:33:42;;;;;;;99.05;59.72;;;;;;;5.90;100.00;101480.84;5225361;28;20414;-77
2021/03/24 02:36:20;;;;;;;97.10;57.58;;;;;;;5.92;100.00;101484.31;5223799;28;20213;-77
2021/03/24 02:38:54;;;;;;;95.85;58.00;;;;;;;5.90;100.00;101480.00;5225012;28;20067;-77
2021/03/24 02:41:26;;;;;;;97.40;59.93;;;;;;;5.89;100.00;101476.53;5224981;28;20676;-77
2021/03/24 02:43:57;;;;;;;93.75;58.97;;;;;;;5.85;100.00;101481.72;5224854;28;20051;-78
2021/03/24 02:46:28;;;;;;;97.32;58.85;;;;;;;5.87;100.00;101482.59;5224768;28;20025;-75
2021/03/24 02:49:02;;;;;;;91.70;56.70;;;;;;;5.91;100.00;101486.94;5225752;28;20032;-77
2021/03/24 02:51:33;;;;;;;93.57;57.00;;;;;;;5.90;100.00;101483.44;5225145;28;20063;-77
2021/03/24 02:54:07;;;;;;;91.07;56.55;;;;;;;5.94;100.00;101471.34;5224984;28;20483;-77
2021/03/24 02:56:37;;;;;;;86.45;54.50;;;;;;;6.04;100.00;101483.41;5225241;28;20078;-77
2021/03/24 02:59:09;;;;;;;85.63;53.08;;;;;;;6.13;100.00;101473.91;5224226;28;20530;-76
2021/03/24 03:01:54;;;;;;;85.55;52.97;;;;;;;6.02;100.00;101478.25;5224399;28;20379;-76
2021/03/24 03:04:32;;;;;;;86.57;52.28;;;;;;;6.06;99.89;101479.09;5224292;28;20041;-77
2021/03/24 03:07:23;;;;;;;85.72;53.20;;;;;;;6.00;99.99;101477.38;5220696;28;20037;-77
2021/03/24 03:10:08;;;;;;;82.70;51.70;;;;;;;6.03;100.00;101474.78;5223939;28;20032;-77
2021/03/24 03:12:52;;;;;;;87.53;53.80;;;;;;;5.97;100.00;101473.94;5224789;28;20060;-77
2021/03/24 03:15:27;;;;;;;85.97;52.58;;;;;;;6.02;100.00;101470.47;5224029;28;20065;-77
2021/03/24 03:18:06;;;;;;;88.82;53.50;;;;;;;5.98;100.00;101478.25;5222891;28;20056;-77
2021/03/24 03:20:42;;;;;;;91.80;55.60;;;;;;;5.89;100.00;101475.69;5224090;28;20548;-76
2021/03/24 03:23:16;;;;;;;89.05;53.88;;;;;;;5.97;100.00;101479.13;5223775;28;20094;-77
2021/03/24 03:25:58;;;;;;;90.00;55.65;;;;;;;5.95;100.00;101479.09;5222575;28;20551;-76
2021/03/24 03:28:29;;;;;;;92.20;56.17;;;;;;;5.87;100.00;101480.88;5223719;28;20032;-77
2021/03/24 03:31:01;;;;;;;90.95;55.58;;;;;;;5.91;100.00;101481.72;5223790;28;20422;-76
2021/03/24 03:33:34;;;;;;;88.72;55.22;;;;;;;6.16;100.00;101473.88;5219773;28;20033;-77
2021/03/24 03:36:06;;;;;;;88.90;54.10;;;;;;;6.11;99.95;101474.75;5223437;28;20629;-77
2021/03/24 03:38:38;;;;;;;93.13;54.38;;;;;;;6.12;100.00;101455.72;5222781;28;20038;-77
2021/03/24 03:41:11;;;;;;;88.95;52.75;;;;;;;6.28;99.53;101455.63;5223149;28;20033;-77
2021/03/24 03:43:48;;;;;;;85.25;52.58;;;;;;;6.01;100.00;101457.47;5222822;28;20112;-77
2021/03/24 03:46:22;;;;;;;88.00;52.15;;;;;;;5.93;100.00;101470.47;5223278;28;20059;-77
2021/03/24 03:48:53;;;;;;;88.20;53.40;;;;;;;5.91;100.00;101463.56;5222530;28;20595;-77
2021/03/24 03:52:00;;;;;;;82.32;49.97;;;;;;;5.99;100.00;101464.41;5223612;28;20028;-76
2021/03/24 03:54:36;;;;;;;85.25;49.67;;;;;;;5.98;99.56;101457.50;5218849;28;20025;-77
2021/03/24 03:57:06;;;;;;;;;;;;;;;5.95;100.00;101457.50;5223948;28;20425;-77
2021/03/24 03:59:45;;;;;;;89.67;50.03;;;;;;;6.09;99.84;101455.75;5223189;28;19912;-77
2021/03/24 04:02:19;;;;;;;84.55;48.70;;;;;;;6.05;99.64;101464.41;5223362;28;20279;-77
2021/03/24 04:04:57;;;;;;;86.15;49.67;;;;;;;5.98;100.00;101455.78;5223299;28;20044;-77
2021/03/24 04:07:40;;;;;;;84.45;49.13;;;;;;;5.94;100.00;101455.78;5223340;28;20017;-77
2021/03/24 04:10:11;;;;;;;82.05;48.97;;;;;;;5.95;100.00;101452.31;5220425;28;20479;-76
2021/03/24 04:12:41;;;;;;;80.80;48.60;;;;;;;6.03;100.00;101450.53;5222713;28;20040;-77
2021/03/24 04:15:16;;;;;;;78.90;47.75;;;;;;;6.01;99.98;101454.88;5221014;28;20551;-77
2021/03/24 04:17:55;;;;;;;81.18;48.30;;;;;;;6.21;98.88;101448.75;5218503;28;20024;-77
2021/03/24 04:20:29;;;;;;;87.50;47.40;;;;;;;6.18;98.64;101448.78;5217077;28;20021;-77
2021/03/24 04:23:01;;;;;;;86.45;48.20;;;;;;;6.08;98.99;101451.41;5198256;28;20036;-75
2021/03/24 04:25:42;;;;;;;84.35;48.72;;;;;;;6.00;100.00;101450.56;5218288;28;20040;-76
2021/03/24 04:28:16;;;;;;;83.32;49.13;;;;;;;5.96;100.00;101448.84;5216451;28;20021;-77
2021/03/24 04:30:54;;;;;;;75.55;46.55;;;;;;;6.04;99.72;101457.47;5218529;28;20023;-77
2021/03/24 04:33:25;;;;;;;79.18;46.92;;;;;;;5.95;99.90;101460.09;5220868;28;20020;-76
2021/03/24 04:36:00;;;;;;;80.25;47.75;;;;;;;6.14;98.98;101456.56;5220130;28;20013;-76
2021/03/24 04:38:36;;;;;;;81.70;48.60;;;;;;;6.13;98.89;101455.72;5222696;28;20078;-76
2021/03/24 04:41:12;;;;;;;78.03;47.70;;;;;;;6.08;99.30;101465.22;5218006;28;20617;-77
2021/03/24 04:43:48;;;;;;;81.38;47.22;;;;;;;6.31;98.60;101457.38;5217258;28;20116;-77
2021/03/24 04:46:24;;;;;;;77.88;46.30;;;;;;;6.13;99.00;101470.41;5195343;28;20025;-76
2021/03/24 04:49:01;;;;;;;80.03;47.65;;;;;;;6.05;98.76;101460.06;5214843;28;20529;-76
2021/03/24 04:51:38;;;;;;;82.65;47.67;;;;;;;6.04;99.06;101467.84;5219836;28;20391;-76
2021/03/24 04:54:32;;;;;;;77.68;47.78;;;;;;;6.03;99.62;101467.00;5219841;28;20028;-77
2021/03/24 04:57:11;;;;;;;78.35;47.08;;;;;;;6.11;98.69;101474.75;5216142;28;20093;-76
2021/03/24 04:59:47;;;;;;;83.03;48.00;;;;;;;6.15;98.34;101468.69;5216150;28;20032;-77
2021/03/24 05:02:26;;;;;;;82.03;47.10;;;;;;;6.08;98.74;101469.59;5222742;28;20103;-78
2021/03/24 05:05:04;;;;;;;83.20;47.72;;;;;;;5.95;99.80;101471.31;5219423;28;20430;-77
2021/03/24 05:07:40;;;;;;;82.07;47.72;;;;;;;6.00;99.91;101463.53;5221143;28;20057;-78
2021/03/24 05:10:16;;;;;;;79.53;46.88;;;;;;;6.01;99.81;101468.72;5203792;28;20032;-77
2021/03/24 05:12:51;;;;;;;79.65;46.15;;;;;;;6.14;99.23;101470.44;5201560;28;20040;-77
2021/03/24 05:15:30;;;;;;;84.13;47.67;;;;;;;5.95;99.42;101473.06;5218066;28;20090;-77
2021/03/24 05:18:03;;;;;;;81.32;46.95;;;;;;;6.19;98.81;101471.25;5212839;28;20027;-77
2021/03/24 05:20:45;;;;;;;86.20;48.47;;;;;;;6.03;99.10;101471.31;5217055;28;20029;-77
2021/03/24 05:23:18;;;;;;;81.90;46.90;;;;;;;6.11;98.57;101474.75;5203500;28;20032;-78
2021/03/24 05:25:59;;;;;;;80.13;46.65;;;;;;;6.03;98.38;101476.50;5225041;28;20036;-78
2021/03/24 05:28:45;;;;;;;79.28;45.88;;;;;;;5.94;98.87;101471.34;5225066;28;20037;-77
2021/03/24 05:31:24;;;;;;;81.93;46.03;;;;;;;6.03;98.41;101466.13;5223219;28;20082;-76
2021/03/24 05:34:01;;;;;;;77.18;44.97;;;;;;;6.02;98.16;101469.56;5206900;28;20021;-77
2021/03/24 05:36:40;;;;;;;77.00;44.33;;;;;;;6.07;98.28;101468.69;5220389;28;20025;-77
2021/03/24 05:39:20;;;;;;;77.78;44.33;;;;;;;6.13;98.01;101457.44;5224493;28;20842;-78
2021/03/24 05:42:08;;;;;;;76.90;44.78;;;;;;;6.13;97.34;101462.63;5224309;28;20024;-77
2021/03/24 05:44:56;;;;;;;72.38;42.85;;;;;;;6.16;98.21;101462.63;5222374;28;20143;-77
2021/03/24 05:47:58;;;;;;;77.35;45.05;;;;;;;6.04;98.55;101466.13;5205410;28;20549;-78
2021/03/24 05:50:49;;;;;;;74.97;43.17;;;;;;;6.16;97.07;101468.69;5223044;28;20117;-77
2021/03/24 05:53:57;;;;;;;79.72;43.80;;;;;;;6.09;97.27;101466.97;5203287;28;20041;-77
2021/03/24 05:56:51;;;;;;;82.28;44.42;;;;;;;6.18;96.87;101469.53;5223673;28;20382;-77
2021/03/24 05:59:34;;;;;;;75.03;43.75;;;;;;;6.40;96.45;101467.72;5223082;28;20538;-77
2021/03/24 06:02:18;;;;;;;77.65;42.47;;;;;;;6.39;94.99;101468.59;5223172;28;20040;-77
2021/03/24 06:05:23;;;;;;;74.57;44.28;;;;;;;6.55;95.24;101465.03;5222547;28;20104;-77
2021/03/24 06:08:21;;;;;;;70.30;41.83;;;;;;;6.42;94.91;101465.97;5206525;28;20072;-76
2021/03/24 06:10:57;;;;;;;72.45;43.10;;;;;;;6.42;94.82;101463.38;5220842;28;20021;-76
2021/03/24 06:13:55;;;;;;;78.45;43.67;;;;;;;6.43;95.57;101462.53;5227406;28;20485;-77
2021/03/24 06:16:45;;;;;;;68.47;41.58;;;;;;;6.37;94.83;101466.00;5226271;28;20032;-76
2021/03/24 06:19:30;;;;;;;70.45;42.63;;;;;;;6.44;96.13;101464.25;5207575;28;20441;-76
2021/03/24 06:22:09;;;;;;;72.68;43.13;;;;;;;6.45;95.04;101460.78;5208802;28;20043;-78
2021/03/24 06:24:42;;;;;;;76.75;42.33;;;;;;;6.62;94.16;101465.00;5223619;28;20490;-78
2021/03/24 06:27:36;;;;;;;76.82;43.55;;;;;;;6.60;94.26;101465.88;5209250;28;20067;-77
2021/03/24 06:30:25;;;;;;;74.45;41.20;;;;;;;6.71;93.44;101464.06;5225062;28;20029;-77
2021/03/24 06:33:32;;;;;;;73.68;42.88;;;;;;;6.66;93.05;101463.25;5208104;28;20395;-77
2021/03/24 06:36:21;;;;;;;72.78;43.20;;;;;;;6.75;93.94;101466.66;5222296;28;20029;-78
2021/03/24 06:39:16;;;;;;;68.63;42.92;;;;;;;6.88;92.83;101462.25;5226284;28;20107;-78
2021/03/24 06:42:02;;;;;;;71.93;43.40;;;;;;;6.79;93.17;101465.75;5223949;28;20021;-77
2021/03/24 06:44:58;;;;;;;76.15;43.10;;;;;;;6.79;92.89;101462.31;5224077;28;20028;-78
2021/03/24 06:47:46;;;;;;;75.05;43.35;;;;;;;7.02;91.86;101470.81;5209236;28;20243;-76
2021/03/24 06:51:00;;;;;;;71.22;41.90;;;;;;;7.16;91.02;101458.59;5226307;28;20033;-76
2021/03/24 06:53:52;;;;;;;73.05;42.85;;;;;;;7.00;92.01;101470.84;5227485;28;20017;-76
2021/03/24 06:56:44;;;;;;;71.68;43.13;;;;;;;7.05;92.31;101470.78;5226528;28;20100;-75
2021/03/24 06:59:51;;;;;;;75.10;43.08;;;;;;;6.94;91.56;101472.63;5226758;28;20031;-76
2021/03/24 07:02:23;;;;;;;81.50;44.05;;;;;;;7.20;91.00;101471.56;5226893;28;20702;-76
2021/03/24 07:05:22;;;;;;;70.82;42.28;;;;;;;7.19;91.15;101471.56;5224700;28;20033;-77
2021/03/24 07:08:16;;;;;;;69.97;42.15;;;;;;;7.20;91.17;101471.56;5225370;28;20021;-77
2021/03/24 07:11:22;;;;;;;74.70;42.40;;;;;;;7.21;90.15;101475.00;5222016;28;20036;-77
2021/03/24 07:14:15;;;;;;;73.05;42.30;;;;;;;7.26;89.71;101474.09;5222700;28;20029;-76
2021/03/24 07:17:08;;;;;;;76.07;42.45;;;;;;;7.36;88.88;101479.19;5222465;28;20526;-77
2021/03/24 07:19:41;;;;;;;74.55;43.67;;;;;;;7.40;89.05;101480.94;5220731;28;20028;-77
2021/03/24 07:22:21;;;;;;;69.32;42.30;;;;;;;7.46;90.12;101483.47;5223540;28;20028;-76
2021/03/24 07:25:21;;;;;;;75.32;44.05;;;;;;;7.47;89.73;101477.38;5222751;28;20024;-76
2021/03/24 07:28:20;;;;;;;71.55;41.83;;;;;;;7.44;90.19;101482.63;5207785;28;20043;-77
2021/03/24 07:31:09;;;;;;;70.47;41.60;;;;;;;7.58;88.49;101485.97;5225005;28;20687;-76
2021/03/24 07:33:50;;;;;;;69.82;40.47;;;;;;;7.78;87.57;101489.25;5204003;28;20040;-77
2021/03/24 07:36:38;;;;;;;68.65;41.13;;;;;;;7.86;88.64;101489.16;5224225;28;20036;-78
2021/03/24 07:39:38;;;;;;;68.22;41.85;;;;;;;7.96;87.83;101478.66;5224227;28;20075;-77
2021/03/24 07:42:30;;;;;;;71.22;41.00;;;;;;;8.21;86.08;101485.31;5223751;28;20462;-77
2021/03/24 07:45:22;;;;;;;71.22;41.00;;;;;;;8.19;86.31;101489.69;5223267;28;20021;-78
2021/03/24 07:48:08;;;;;;;69.68;41.45;;;;;;;8.07;86.73;101484.56;5223999;28;20032;-77
2021/03/24 07:50:47;;;;;;;75.43;41.63;;;;;;;8.25;86.73;101487.00;5223533;28;20744;-78
2021/03/24 07:53:39;;;;;;;72.15;41.58;;;;;;;8.57;85.63;101492.69;5223750;28;20037;-78
2021/03/24 07:56:34;;;;;;;64.55;40.45;;;;;;;8.69;85.51;101497.75;5203128;28;20104;-78
2021/03/24 07:59:13;;;;;;;69.22;41.13;;;;;;;8.77;83.75;101493.31;5226430;28;20410;-78
2021/03/24 08:01:58;;;;;;;68.18;40.10;;;;;;;9.09;84.08;101485.88;5223440;28;20035;-78
2021/03/24 08:04:40;;;;;;;70.18;41.08;;;;;;;8.99;83.18;101486.91;5223846;28;20021;-78
2021/03/24 08:07:25;;;;;;;68.25;40.60;;;;;;;9.20;82.63;101486.56;5224563;28;20029;-79
2021/03/24 08:10:05;;;;;;;67.57;39.63;;;;;;;9.18;82.78;101491.81;5225059;28;20383;-78
2021/03/24 08:13:02;;;;;;;67.85;40.63;;;;;;;9.13;81.77;101487.56;5225791;28;20386;-78
2021/03/24 08:15:54;;;;;;;66.45;40.58;;;;;;;9.45;82.01;101490.53;5207124;28;20025;-79
2021/03/24 08:18:46;;;;;;;65.07;39.58;;;;;;;9.60;80.48;101485.03;5225086;28;20021;-78
2021/03/24 08:21:55;;;;;;;65.72;39.10;;;;;;;10.47;77.53;101483.41;5224899;28;20392;-78
2021/03/24 08:24:39;;;;;;;62.28;38.58;;;;;;;11.32;76.48;101476.22;5225169;28;20036;-78
2021/03/24 08:27:21;;;;;;;59.13;36.70;;;;;;;11.43;74.55;101471.59;5220862;28;20047;-79
2021/03/24 08:29:57;;;;;;;68.32;39.35;;;;;;;11.93;73.60;101473.81;5226215;28;20039;-79
2021/03/24 08:32:42;;;;;;;63.80;38.53;;;;;;;12.40;71.85;101470.72;5225951;28;20060;-79
2021/03/24 08:35:30;;;;;;;59.77;35.93;;;;;;;12.54;69.75;101469.44;5206163;28;20029;-79
2021/03/24 08:38:10;;;;;;;64.85;37.67;;;;;;;13.25;68.51;101470.72;5217675;28;20291;-76
2021/03/24 08:40:48;;;;;;;59.10;37.22;;;;;;;13.23;69.16;101467.31;5227308;28;20036;-79
2021/03/24 08:43:26;;;;;;;55.97;36.08;;;;;;;14.16;65.39;101475.47;5227708;28;20429;-79
2021/03/24 08:46:08;;;;;;;52.78;35.75;;;;;;;14.24;65.27;101472.56;5208768;28;20029;-76
2021/03/24 08:48:55;;;;;;;49.42;33.58;;;;;;;14.02;64.31;101477.69;5222921;28;20366;-77
2021/03/24 08:51:56;;;;;;;50.88;35.22;;;;;;;13.45;66.83;101465.69;5222086;28;20040;-76
2021/03/24 08:54:51;;;;;;;57.80;35.47;;;;;;;13.86;66.79;101460.75;5222703;28;20059;-76
2021/03/24 08:57:33;;;;;;;57.70;34.83;;;;;;;14.77;66.14;101458.28;5204231;28;20028;-76
2021/03/24 09:00:41;;;;;;;59.42;34.88;;;;;;;14.17;65.04;101461.41;5215090;28;20017;-77
2021/03/24 09:03:32;;;;;;;55.20;35.53;;;;;;;13.68;65.77;101463.13;5204642;28;20064;-76
2021/03/24 09:06:13;;;;;;;56.35;35.30;;;;;;;13.44;69.04;101466.59;5210024;28;20025;-77
2021/03/24 09:08:49;;;;;;;56.78;36.47;;;;;;;13.31;69.09;101457.41;5222332;28;20028;-77
2021/03/24 09:11:48;;;;;;;56.10;35.88;;;;;;;12.95;68.80;101460.34;5222438;28;20660;-77
2021/03/24 09:14:24;;;;;;;60.17;37.05;;;;;;;12.47;69.97;101467.88;5212862;28;20405;-76
2021/03/24 09:17:04;;;;;;;58.40;35.28;;;;;;;12.70;69.72;101460.22;5221150;28;20032;-76
2021/03/24 09:19:52;;;;;;;55.70;35.75;;;;;;;12.93;69.25;101460.38;5203634;28;20038;-78
2021/03/24 09:22:41;;;;;;;59.72;35.42;;;;;;;13.13;70.17;101451.00;5222950;28;20037;-76
2021/03/24 09:25:49;;;;;;;57.13;35.40;;;;;;;12.98;70.67;101449.75;5221740;28;20116;-76
2021/03/24 09:28:55;;;;;;;63.30;36.50;;;;;;;13.20;71.08;101451.66;5208450;28;20029;-77
2021/03/24 09:31:59;;;;;;;64.53;37.78;;;;;;;13.45;71.40;101449.94;5204520;28;20025;-76
2021/03/24 09:34:47;;;;;;;54.97;35.60;;;;;;;13.00;71.00;101451.41;5221002;28;20086;-77
2021/03/24 09:37:23;;;;;;;55.85;35.65;;;;;;;13.57;69.27;101444.28;5219967;28;20025;-76
2021/03/24 09:39:58;;;;;;;56.35;36.30;;;;;;;13.62;70.40;101448.47;5221915;28;20744;-76
2021/03/24 09:42:31;;;;;;;64.78;37.13;;;;;;;13.88;68.23;101440.53;5219596;28;20028;-76
2021/03/24 09:45:14;;;;;;;63.83;35.60;;;;;;;14.36;65.92;101430.91;5218128;28;20075;-76
2021/03/24 09:48:15;;;;;;;55.75;35.53;;;;;;;13.81;67.23;101438.16;5225112;28;20079;-77
2021/03/24 09:51:09;;;;;;;62.05;36.22;;;;;;;14.86;66.69;101430.66;5216246;28;20028;-77
2021/03/24 09:53:42;;;;;;;61.65;36.03;;;;;;;14.91;64.30;101430.50;5225499;28;20043;-77
2021/03/24 09:56:23;;;;;;;63.15;35.40;;;;;;;14.12;66.17;101434.38;5225526;28;20099;-76
2021/03/24 09:59:13;;;;;;;62.22;36.17;;;;;;;14.38;65.95;101425.56;5224522;28;20025;-77
2021/03/24 10:01:50;;;;;;;63.28;36.38;;;;;;;14.18;66.23;101428.94;5223184;28;20028;-76
2021/03/24 10:04:48;;;;;;;63.20;36.63;;;;;;;13.74;67.39;101434.03;5207636;28;20033;-77
2021/03/24 10:07:26;;;;;;;60.35;37.15;;;;;;;14.28;67.27;101429.47;5207294;28;20025;-77
2021/03/24 10:10:20;;;;;;;60.25;35.70;;;;;;;14.36;65.32;101425.66;5225735;28;20040;-77
2021/03/24 10:13:02;;;;;;;64.20;36.08;;;;;;;14.33;65.64;101422.25;5224872;28;20075;-77
2021/03/24 10:15:42;;;;;;;59.70;35.85;;;;;;;14.03;65.67;101420.72;5208383;28;20108;-76
2021/03/24 10:18:29;;;;;;;57.03;35.40;;;;;;;14.15;65.95;101410.63;5225641;28;20041;-76
2021/03/24 10:21:14;;;;;;;;;;;;;;;13.92;67.20;101417.63;5225321;28;20025;-76
2021/03/24 10:23:55;;;;;;;63.33;35.70;;;;;;;14.44;67.52;101406.94;5214312;28;20003;-77
2021/03/24 10:26:45;;;;;;;61.90;34.78;;;;;;;14.73;65.91;101410.16;5225028;28;20029;-76
2021/03/24 10:29:21;;;;;;;54.92;33.78;;;;;;;14.85;65.23;101405.25;5225632;28;20029;-76
2021/03/24 10:32:38;;;;;;;54.63;34.63;;;;;;;14.91;65.53;101394.50;5224808;28;20086;-77
2021/03/24 10:35:31;;;;;;;55.27;33.60;;;;;;;14.87;65.74;101400.78;5197545;28;20037;-77
2021/03/24 10:38:20;;;;;;;56.88;33.65;;;;;;;14.77;64.49;101395.13;5223102;28;20367;-77
2021/03/24 10:41:04;;;;;;;55.53;33.75;;;;;;;15.20;65.54;101393.31;5224874;28;20479;-77
2021/03/24 10:43:42;;;;;;;54.95;33.60;;;;;;;14.99;64.59;101395.03;5224363;28;20032;-77
2021/03/24 10:46:20;;;;;;;56.92;34.10;;;;;;;14.53;65.69;101394.28;5223999;28;20124;-77
2021/03/24 10:48:57;;;;;;;58.45;34.00;;;;;;;14.68;65.55;101391.06;5224967;28;20032;-77
2021/03/24 10:52:03;;;;;;;58.30;34.30;;;;;;;14.66;65.31;101382.38;5224639;28;20013;-76
2021/03/24 10:54:36;;;;;;;58.63;34.13;;;;;;;14.19;66.49;101385.09;5206999;28;20138;-77
2021/03/24 10:57:14;;;;;;;61.97;33.85;;;;;;;14.17;67.53;101376.41;5224017;28;20347;-77
2021/03/24 10:59:52;;;;;;;57.42;32.75;;;;;;;14.08;66.61;101376.75;5223710;28;20033;-77
2021/03/24 11:03:04;;;;;;;54.28;34.08;;;;;;;13.64;68.92;101370.47;5224141;28;20061;-76
2021/03/24 11:05:43;;;;;;;54.88;34.40;;;;;;;13.61;67.92;101369.69;5205977;28;20051;-77
2021/03/24 11:08:31;;;;;;;55.83;34.03;;;;;;;13.59;68.44;101367.13;5224583;28;20478;-77
2021/03/24 11:11:14;;;;;;;59.30;35.60;;;;;;;13.87;67.76;101366.97;5223492;28;20025;-77
2021/03/24 11:13:53;;;;;;;54.65;34.42;;;;;;;13.92;68.15;101362.44;5223668;28;20029;-77
2021/03/24 11:16:44;;;;;;;59.15;35.38;;;;;;;14.33;68.42;101361.78;5223942;28;20029;-77
2021/03/24 11:19:35;;;;;;;58.10;35.10;;;;;;;14.44;66.12;101351.72;5221793;28;20031;-76
2021/03/24 11:22:14;;;;;;;60.55;36.42;;;;;;;14.37;65.81;101351.09;5202121;28;20028;-76
2021/03/24 11:25:05;;;;;;;54.13;35.15;;;;;;;14.47;66.99;101339.31;5223324;28;20028;-77
2021/03/24 11:27:51;;;;;;;60.45;36.67;;;;;;;14.33;66.32;101343.38;5224565;28;20495;-78
2021/03/24 11:30:25;;;;;;;54.03;34.53;;;;;;;14.48;66.74;101345.41;5224003;28;20021;-78
2021/03/24 11:33:02;;;;;;;60.67;35.17;;;;;;;14.31;65.90;101339.94;5205934;28;20052;-77
2021/03/24 11:35:55;;;;;;;58.65;33.78;;;;;;;14.42;68.78;101340.38;5220556;28;20028;-78
2021/03/24 11:38:50;;;;;;;53.72;33.35;;;;;;;14.11;66.39;101337.19;5197606;28;20025;-77
2021/03/24 11:41:23;;;;;;;57.15;35.53;;;;;;;14.06;66.69;101331.25;5206169;28;20519;-78
2021/03/24 11:43:59;;;;;;;55.92;35.35;;;;;;;13.93;67.40;101338.72;5222003;28;20056;-77
2021/03/24 11:46:41;;;;;;;54.90;34.85;;;;;;;14.05;67.12;101334.81;5220057;28;20025;-77
2021/03/24 11:49:59;;;;;;;59.53;34.33;;;;;;;14.08;65.85;101340.78;5222761;28;20028;-78
2021/03/24 11:52:39;;;;;;;55.55;34.10;;;;;;;14.26;67.14;101324.31;5205323;28;20040;-78
2021/03/24 11:55:54;;;;;;;56.45;35.95;;;;;;;14.12;66.96;101329.22;5216984;28;20032;-78
2021/03/24 11:58:43;;;;;;;57.13;35.88;;;;;;;14.21;66.94;101320.16;5120312;29;20150;-77
2021/03/24 12:01:32;;;;;;;60.40;36.92;;;;;;;14.09;66.83;101331.97;5119749;28;20667;-78
2021/03/24 12:04:40;;;;;;;60.00;37.08;;;;;;;14.25;65.78;101317.34;5200854;28;20045;-78
2021/03/24 12:07:24;;;;;;;64.32;39.75;;;;;;;13.73;66.46;101311.47;5220752;28;20029;-78
2021/03/24 12:10:11;;;;;;;62.65;39.53;;;;;;;13.68;67.08;101308.13;5205306;28;20025;-77
2021/03/24 12:12:42;;;;;;;61.63;39.78;;;;;;;13.93;67.88;101307.19;5223347;28;20037;-78
2021/03/24 12:15:28;;;;;;;55.80;37.05;;;;;;;14.03;67.52;101299.78;5205732;28;20028;-78
2021/03/24 12:18:09;;;;;;;61.83;37.20;;;;;;;14.05;67.20;101298.00;5202482;28;20029;-78